Time;durP1;ratioP1;P1;durP2;ratioP2;P2;SDS_P1;SDS_P2;PMS_P1;PMS_P2;Temp;Humidity;BMP_temperature;BMP_pressure;BME280_temperature;BME280_humidity;BME280_pressure;Samples;Min_cycle;Max_cycle;Signal;HPM_P1;HPM_P2
2022/06/09 00:00:15;;;;;;;48.80;30.35;;;;;;;;;;2082646;28;20204;-52
2022/06/09 00:01:42;;;;;;;49.55;30.70;;;;;;;;;;2082936;28;20174;-53
2022/06/09 00:02:45;;;;;;;51.55;29.42;;;;;;;;;;2079727;28;20294;-55
2022/06/09 00:03:59;;;;;;;48.80;28.77;;;;;;;;;;2083427;28;20365;-54
2022/06/09 00:04:59;;;;;;;46.90;29.63;;;;;;;;;;2083368;28;20165;-55
2022/06/09 00:05:59;;;;;;;46.10;29.63;;;;;;;;;;2083542;28;20177;-53
2022/06/09 00:07:29;;;;;;;50.92;31.83;;;;;;;;;;2081746;28;20183;-52
2022/06/09 00:08:30;;;;;;;48.08;30.85;;;;;;;;;;2070570;28;20222;-53
2022/06/09 00:09:43;;;;;;;46.85;29.40;;;;;;;;;;2082541;28;20180;-54
2022/06/09 00:10:45;;;;;;;45.38;29.48;;;;;;;;;;2079894;28;20226;-57
2022/06/09 00:11:47;;;;;;;41.80;28.73;;;;;;;;;;2081382;28;20180;-52
2022/06/09 00:12:47;;;;;;;50.15;30.65;;;;;;;;;;2074643;28;20591;-52
2022/06/09 00:13:48;;;;;;;48.75;29.98;;;;;;;;;;2082527;28;20222;-52
2022/06/09 00:14:48;;;;;;;48.33;31.13;;;;;;;;;;2082627;28;20168;-51
2022/06/09 00:15:49;;;;;;;52.47;30.77;;;;;;;;;;2082965;28;20649;-56
2022/06/09 00:16:49;;;;;;;48.75;30.35;;;;;;;;;;2083423;28;20176;-51
2022/06/09 00:17:50;;;;;;;55.58;30.20;;;;;;;;;;2082633;28;20161;-52
2022/06/09 00:18:50;;;;;;;50.53;29.33;;;;;;;;;;2082873;28;20223;-55
2022/06/09 00:19:50;;;;;;;41.75;28.55;;;;;;;;;;2082819;28;20532;-53
2022/06/09 00:20:51;;;;;;;47.65;28.90;;;;;;;;;;2082523;28;20214;-51
2022/06/09 00:21:51;;;;;;;43.47;30.10;;;;;;;;;;2082480;28;20184;-52
2022/06/09 00:22:52;;;;;;;42.13;29.08;;;;;;;;;;2082391;28;20211;-52
2022/06/09 00:23:52;;;;;;;43.95;30.55;;;;;;;;;;2082436;28;20226;-51
2022/06/09 00:24:52;;;;;;;47.35;31.65;;;;;;;;;;2082078;28;20249;-56
2022/06/09 00:25:53;;;;;;;46.42;30.48;;;;;;;;;;2082568;28;20255;-52
2022/06/09 00:26:53;;;;;;;48.75;30.42;;;;;;;;;;2082657;28;20157;-51
2022/06/09 00:27:54;;;;;;;42.70;29.20;;;;;;;;;;2081522;28;20580;-51
2022/06/09 00:28:54;;;;;;;45.65;28.95;;;;;;;;;;2078283;28;20203;-52
2022/06/09 00:29:54;;;;;;;46.00;28.92;;;;;;;;;;2074144;28;20169;-52
2022/06/09 00:30:55;;;;;;;43.58;28.63;;;;;;;;;;2074404;28;20720;-54
2022/06/09 00:31:55;;;;;;;44.95;29.58;;;;;;;;;;2074339;28;20169;-52
2022/06/09 00:32:55;;;;;;;39.90;27.85;;;;;;;;;;2076056;28;20252;-51
2022/06/09 00:33:56;;;;;;;40.90;28.73;;;;;;;;;;2082450;28;20296;-55
2022/06/09 00:34:56;;;;;;;43.03;28.67;;;;;;;;;;2083565;28;20168;-53
2022/06/09 00:35:56;;;;;;;38.00;27.40;;;;;;;;;;2084009;28;20226;-56
2022/06/09 00:36:57;;;;;;;43.22;28.55;;;;;;;;;;2082972;28;20164;-55
2022/06/09 00:37:57;;;;;;;35.88;26.58;;;;;;;;;;2083599;28;20661;-55
2022/06/09 00:38:58;;;;;;;41.88;27.63;;;;;;;;;;2083737;28;20258;-55
2022/06/09 00:39:59;;;;;;;37.63;27.25;;;;;;;;;;2084359;28;20251;-55
2022/06/09 00:40:59;;;;;;;40.35;26.67;;;;;;;;;;2084053;28;20242;-54
2022/06/09 00:42:00;;;;;;;36.33;27.33;;;;;;;;;;2083146;28;20164;-53
2022/06/09 00:43:01;;;;;;;40.65;26.77;;;;;;;;;;2082328;28;20524;-57
2022/06/09 00:44:15;;;;;;;35.08;26.00;;;;;;;;;;2082366;28;20648;-55
2022/06/09 00:45:22;;;;;;;35.50;25.73;;;;;;;;;;2084036;28;20629;-54
2022/06/09 00:46:25;;;;;;;40.80;26.90;;;;;;;;;;2083207;28;20299;-52
2022/06/09 00:47:31;;;;;;;34.67;24.77;;;;;;;;;;2083092;28;20171;-51
2022/06/09 00:48:43;;;;;;;34.28;25.48;;;;;;;;;;2082332;28;20215;-54
2022/06/09 00:50:03;;;;;;;37.22;25.45;;;;;;;;;;2082388;28;20186;-55
2022/06/09 00:51:23;;;;;;;37.83;25.95;;;;;;;;;;2081440;28;20259;-54
2022/06/09 00:52:24;;;;;;;39.13;24.48;;;;;;;;;;2082635;28;20214;-51
2022/06/09 00:53:28;;;;;;;30.20;24.33;;;;;;;;;;2082186;28;20187;-51
2022/06/09 00:54:31;;;;;;;33.85;24.27;;;;;;;;;;2080822;28;20172;-53
2022/06/09 00:55:33;;;;;;;32.05;24.17;;;;;;;;;;2082108;28;20194;-53
2022/06/09 00:56:35;;;;;;;29.95;23.60;;;;;;;;;;2082052;28;20184;-54
2022/06/09 00:57:39;;;;;;;30.90;24.98;;;;;;;;;;2073941;28;20177;-52
2022/06/09 00:58:42;;;;;;;32.03;25.88;;;;;;;;;;2074022;28;20239;-52
2022/06/09 00:59:46;;;;;;;36.20;25.00;;;;;;;;;;2076459;28;20165;-52
2022/06/09 01:00:59;;;;;;;31.33;25.15;;;;;;;;;;2082072;28;20254;-54
2022/06/09 01:02:01;;;;;;;34.03;25.38;;;;;;;;;;2081467;28;20188;-52
2022/06/09 01:03:02;;;;;;;35.95;25.77;;;;;;;;;;2081304;28;20157;-52
2022/06/09 01:04:05;;;;;;;32.97;24.48;;;;;;;;;;2072739;28;20184;-52
2022/06/09 01:05:06;;;;;;;32.08;24.15;;;;;;;;;;2065788;28;20173;-54
2022/06/09 01:06:11;;;;;;;34.13;25.17;;;;;;;;;;2081696;28;20262;-55
2022/06/09 01:07:14;;;;;;;34.10;24.98;;;;;;;;;;2081441;28;20173;-53
2022/06/09 01:08:14;;;;;;;37.38;23.75;;;;;;;;;;2082178;28;20188;-52
2022/06/09 01:09:16;;;;;;;31.73;24.85;;;;;;;;;;2082272;28;20188;-51
2022/06/09 01:10:16;;;;;;;35.05;24.02;;;;;;;;;;2079170;28;20184;-54
2022/06/09 01:11:17;;;;;;;32.83;23.10;;;;;;;;;;2073579;28;20177;-54
2022/06/09 01:12:22;;;;;;;32.30;24.20;;;;;;;;;;2089894;28;20663;-55
2022/06/09 01:13:23;;;;;;;34.00;23.85;;;;;;;;;;2087976;28;20186;-51
2022/06/09 01:14:28;;;;;;;30.77;24.45;;;;;;;;;;2081501;28;20596;-52
2022/06/09 01:15:51;;;;;;;36.78;25.27;;;;;;;;;;2082222;28;20173;-51
2022/06/09 01:17:10;;;;;;;33.35;23.83;;;;;;;;;;2073228;28;20288;-52
2022/06/09 01:18:13;;;;;;;37.75;24.35;;;;;;;;;;2081750;28;20653;-53
2022/06/09 01:19:33;;;;;;;35.53;24.08;;;;;;;;;;2081842;28;20211;-52
2022/06/09 01:20:46;;;;;;;36.53;24.02;;;;;;;;;;2081960;28;20219;-55
2022/06/09 01:21:52;;;;;;;30.40;24.88;;;;;;;;;;2081896;28;20188;-51
2022/06/09 01:23:04;;;;;;;34.53;23.83;;;;;;;;;;2082233;28;20168;-50
2022/06/09 01:24:20;;;;;;;33.90;25.05;;;;;;;;;;2080746;28;20537;-54
2022/06/09 01:25:26;;;;;;;31.25;24.40;;;;;;;;;;2082133;28;20164;-54
2022/06/09 01:26:45;;;;;;;36.38;24.15;;;;;;;;;;2081337;28;20651;-54
2022/06/09 01:27:56;;;;;;;31.95;24.13;;;;;;;;;;2075084;28;20223;-51
2022/06/09 01:29:06;;;;;;;29.10;21.58;;;;;;;;;;2077108;28;20175;-52
2022/06/09 01:30:18;;;;;;;32.67;23.90;;;;;;;;;;2081870;28;20183;-55
2022/06/09 01:31:18;;;;;;;36.17;23.33;;;;;;;;;;2082432;28;20161;-53
2022/06/09 01:32:18;;;;;;;34.00;23.65;;;;;;;;;;2081939;28;20177;-55
2022/06/09 01:33:29;;;;;;;33.65;23.55;;;;;;;;;;2082307;28;20531;-54
2022/06/09 01:34:39;;;;;;;30.08;24.30;;;;;;;;;;2072294;28;20289;-53
2022/06/09 01:35:46;;;;;;;36.45;24.80;;;;;;;;;;2067512;28;20538;-52
2022/06/09 01:36:52;;;;;;;33.72;23.30;;;;;;;;;;2081034;28;20243;-51
2022/06/09 01:37:54;;;;;;;30.65;22.50;;;;;;;;;;2081927;28;20647;-51
2022/06/09 01:39:03;;;;;;;30.85;23.10;;;;;;;;;;2082082;28;20164;-55
2022/06/09 01:40:05;;;;;;;36.33;22.42;;;;;;;;;;2073748;28;20533;-55
2022/06/09 01:41:05;;;;;;;33.60;23.20;;;;;;;;;;2073744;28;20196;-52
2022/06/09 01:42:18;;;;;;;31.90;22.63;;;;;;;;;;2073817;28;20169;-53
2022/06/09 01:43:18;;;;;;;33.17;23.10;;;;;;;;;;2073871;28;20153;-55
2022/06/09 01:44:20;;;;;;;28.45;21.60;;;;;;;;;;2072463;28;20201;-54
2022/06/09 01:45:23;;;;;;;31.17;22.92;;;;;;;;;;2073261;28;20280;-54
2022/06/09 01:46:26;;;;;;;32.78;24.25;;;;;;;;;;2081749;28;20164;-53
2022/06/09 01:47:34;;;;;;;26.23;20.92;;;;;;;;;;2081797;28;20188;-55
2022/06/09 01:48:35;;;;;;;32.03;24.13;;;;;;;;;;2081340;28;20173;-51
2022/06/09 01:49:35;;;;;;;31.25;22.60;;;;;;;;;;2080952;28;20164;-53
2022/06/09 01:50:42;;;;;;;30.17;23.77;;;;;;;;;;2081217;28;20211;-56
2022/06/09 01:51:43;;;;;;;28.88;22.75;;;;;;;;;;2081935;28;20617;-54
2022/06/09 01:52:44;;;;;;;34.40;24.20;;;;;;;;;;2082072;28;20176;-54
2022/06/09 01:53:45;;;;;;;33.72;23.48;;;;;;;;;;2081814;28;20252;-56
2022/06/09 01:54:46;;;;;;;30.25;23.73;;;;;;;;;;2081163;28;20191;-53
2022/06/09 01:55:49;;;;;;;28.35;22.73;;;;;;;;;;2081704;28;20563;-52
2022/06/09 01:56:53;;;;;;;31.20;22.63;;;;;;;;;;2081885;28;20164;-51
2022/06/09 01:57:57;;;;;;;28.88;21.85;;;;;;;;;;2081871;28;20620;-56
2022/06/09 01:59:01;;;;;;;29.00;23.50;;;;;;;;;;2081943;28;20169;-54
2022/06/09 02:00:07;;;;;;;30.90;23.50;;;;;;;;;;2081470;28;20172;-52
2022/06/09 02:01:13;;;;;;;28.50;23.05;;;;;;;;;;2081830;28;20626;-55
2022/06/09 02:02:18;;;;;;;32.38;23.08;;;;;;;;;;2081234;28;20680;-54
2022/06/09 02:03:21;;;;;;;33.20;23.63;;;;;;;;;;2081072;28;20157;-51
2022/06/09 02:04:23;;;;;;;33.00;23.63;;;;;;;;;;2080976;28;20168;-52
2022/06/09 02:05:29;;;;;;;26.95;22.83;;;;;;;;;;2081755;28;20183;-54
2022/06/09 02:06:30;;;;;;;30.33;22.90;;;;;;;;;;2081793;28;20176;-56
2022/06/09 02:07:32;;;;;;;30.40;23.85;;;;;;;;;;2081456;28;20564;-55
2022/06/09 02:08:33;;;;;;;32.38;24.35;;;;;;;;;;2081684;28;20168;-54
2022/06/09 02:09:34;;;;;;;33.80;22.85;;;;;;;;;;2081338;28;20627;-52
2022/06/09 02:10:36;;;;;;;30.85;23.13;;;;;;;;;;2081574;28;20204;-52
2022/06/09 02:11:47;;;;;;;27.33;21.80;;;;;;;;;;2073717;28;20176;-53
2022/06/09 02:12:48;;;;;;;31.02;23.02;;;;;;;;;;2081735;28;20168;-54
2022/06/09 02:13:51;;;;;;;32.25;21.77;;;;;;;;;;2081512;28;20618;-54
2022/06/09 02:14:52;;;;;;;34.83;24.15;;;;;;;;;;2080649;28;20582;-52
2022/06/09 02:15:55;;;;;;;31.40;22.50;;;;;;;;;;2081622;28;20224;-53
2022/06/09 02:16:56;;;;;;;35.58;22.45;;;;;;;;;;2081019;28;20164;-55
2022/06/09 02:17:56;;;;;;;29.83;24.10;;;;;;;;;;2081337;28;20215;-52
2022/06/09 02:18:57;;;;;;;32.40;23.30;;;;;;;;;;2081775;28;20168;-52
2022/06/09 02:19:58;;;;;;;35.97;23.08;;;;;;;;;;2081180;28;20161;-55
2022/06/09 02:21:05;;;;;;;31.17;22.27;;;;;;;;;;2086447;23;20220;-51
2022/06/09 02:22:08;;;;;;;32.95;22.17;;;;;;;;;;2079786;28;20172;-52
2022/06/09 02:23:12;;;;;;;34.45;21.92;;;;;;;;;;2080681;28;20176;-56
2022/06/09 02:24:12;;;;;;;33.65;22.20;;;;;;;;;;2081017;28;20168;-55
2022/06/09 02:25:12;;;;;;;31.23;22.27;;;;;;;;;;2080471;28;20997;-57
2022/06/09 02:26:13;;;;;;;32.00;22.83;;;;;;;;;;2081687;28;20192;-56
2022/06/09 02:27:14;;;;;;;27.98;21.10;;;;;;;;;;2081983;28;20219;-57
2022/06/09 02:28:14;;;;;;;33.45;22.58;;;;;;;;;;2081615;28;20184;-56
2022/06/09 02:29:14;;;;;;;30.30;22.00;;;;;;;;;;2081066;28;20171;-56
2022/06/09 02:30:15;;;;;;;31.48;21.45;;;;;;;;;;2080981;28;20199;-57
2022/06/09 02:31:17;;;;;;;29.75;21.75;;;;;;;;;;2076311;28;20208;-55
2022/06/09 02:32:17;;;;;;;28.67;20.92;;;;;;;;;;2072999;28;20177;-56
2022/06/09 02:33:18;;;;;;;27.02;22.23;;;;;;;;;;2072993;28;20701;-55
2022/06/09 02:34:18;;;;;;;31.33;22.85;;;;;;;;;;2072807;28;20219;-54
2022/06/09 02:35:19;;;;;;;29.63;21.63;;;;;;;;;;2073840;28;20661;-54
2022/06/09 02:36:19;;;;;;;27.77;22.55;;;;;;;;;;2073234;28;20721;-56
2022/06/09 02:37:19;;;;;;;30.55;21.50;;;;;;;;;;2073565;28;20544;-56
2022/06/09 02:38:20;;;;;;;31.40;23.08;;;;;;;;;;2072182;28;20220;-57
2022/06/09 02:39:21;;;;;;;30.75;22.25;;;;;;;;;;2073552;28;20187;-56
2022/06/09 02:40:21;;;;;;;25.35;21.83;;;;;;;;;;2079151;28;20212;-56
2022/06/09 02:41:21;;;;;;;30.42;21.92;;;;;;;;;;2081122;28;20191;-56
2022/06/09 02:42:22;;;;;;;30.10;22.52;;;;;;;;;;2081995;28;20160;-54
2022/06/09 02:43:23;;;;;;;27.17;21.00;;;;;;;;;;2073736;28;20263;-58
2022/06/09 02:44:23;;;;;;;32.17;22.73;;;;;;;;;;2072198;28;20168;-55
2022/06/09 02:45:23;;;;;;;28.92;21.70;;;;;;;;;;2073053;28;20181;-56
2022/06/09 02:46:24;;;;;;;30.52;21.95;;;;;;;;;;2073697;28;20173;-51
2022/06/09 02:47:24;;;;;;;30.70;22.48;;;;;;;;;;2073261;28;20173;-53
2022/06/09 02:48:25;;;;;;;26.38;21.45;;;;;;;;;;2073530;28;20268;-53
2022/06/09 02:49:26;;;;;;;27.20;21.75;;;;;;;;;;2073536;28;20199;-56
2022/06/09 02:50:27;;;;;;;30.77;22.55;;;;;;;;;;2080896;28;20188;-56
2022/06/09 02:51:27;;;;;;;29.80;22.08;;;;;;;;;;2079423;28;20219;-58
2022/06/09 02:52:27;;;;;;;27.20;21.92;;;;;;;;;;2073459;28;20692;-57
2022/06/09 02:53:30;;;;;;;27.73;22.20;;;;;;;;;;2073241;28;20267;-55
2022/06/09 02:54:30;;;;;;;30.40;22.83;;;;;;;;;;2071803;28;20200;-58
2022/06/09 02:55:30;;;;;;;28.00;22.42;;;;;;;;;;2071307;28;20847;-56
2022/06/09 02:56:31;;;;;;;32.83;22.83;;;;;;;;;;2073363;28;20683;-52
2022/06/09 02:57:31;;;;;;;31.58;22.60;;;;;;;;;;2077863;28;21880;-55
2022/06/09 02:58:31;;;;;;;31.83;22.83;;;;;;;;;;2073303;28;20203;-54
2022/06/09 02:59:32;;;;;;;28.90;23.02;;;;;;;;;;2073603;28;20323;-54
2022/06/09 03:00:32;;;;;;;30.58;23.52;;;;;;;;;;2072691;28;20200;-54
2022/06/09 03:01:32;;;;;;;30.98;22.55;;;;;;;;;;2073472;28;20626;-55
2022/06/09 03:02:33;;;;;;;29.00;22.30;;;;;;;;;;2073078;28;20261;-53
2022/06/09 03:03:33;;;;;;;36.63;22.52;;;;;;;;;;2073354;28;20243;-54
2022/06/09 03:04:34;;;;;;;31.98;23.58;;;;;;;;;;2072760;28;20704;-58
2022/06/09 03:05:35;;;;;;;34.20;23.38;;;;;;;;;;2073521;28;20659;-57
2022/06/09 03:06:35;;;;;;;34.83;24.42;;;;;;;;;;2072909;28;20625;-55
2022/06/09 03:07:36;;;;;;;28.85;22.70;;;;;;;;;;2072706;28;20181;-52
2022/06/09 03:08:36;;;;;;;30.73;25.23;;;;;;;;;;2073697;28;20179;-58
2022/06/09 03:09:37;;;;;;;28.90;24.17;;;;;;;;;;2073531;28;20246;-54
2022/06/09 03:10:37;;;;;;;30.58;22.83;;;;;;;;;;2068287;28;20179;-54
2022/06/09 03:11:37;;;;;;;29.15;22.00;;;;;;;;;;2065422;28;20180;-57
2022/06/09 03:12:38;;;;;;;29.10;23.08;;;;;;;;;;2072643;28;20181;-56
2022/06/09 03:13:39;;;;;;;27.33;22.75;;;;;;;;;;2073289;28;20180;-57
2022/06/09 03:14:39;;;;;;;33.75;23.23;;;;;;;;;;2071950;28;20653;-55
2022/06/09 03:15:40;;;;;;;27.42;21.92;;;;;;;;;;2072623;28;20185;-53
2022/06/09 03:16:40;;;;;;;34.72;21.55;;;;;;;;;;2073400;28;20189;-57
2022/06/09 03:17:40;;;;;;;36.08;23.05;;;;;;;;;;2072590;28;20173;-57
2022/06/09 03:18:42;;;;;;;29.70;22.70;;;;;;;;;;2072917;28;20172;-57
2022/06/09 03:19:43;;;;;;;31.45;22.60;;;;;;;;;;2073161;28;20177;-58
2022/06/09 03:20:44;;;;;;;31.27;22.88;;;;;;;;;;2072911;28;20219;-59
2022/06/09 03:21:44;;;;;;;30.67;22.45;;;;;;;;;;2073273;28;20653;-54
2022/06/09 03:22:44;;;;;;;28.55;20.85;;;;;;;;;;2073022;28;20165;-55
2022/06/09 03:23:45;;;;;;;31.10;22.42;;;;;;;;;;2073491;28;20169;-55
2022/06/09 03:24:45;;;;;;;27.33;19.73;;;;;;;;;;2072644;28;20165;-60
2022/06/09 03:25:46;;;;;;;30.83;24.15;;;;;;;;;;2073491;28;20622;-56
2022/06/09 03:26:46;;;;;;;27.52;21.38;;;;;;;;;;2073461;28;20626;-56
2022/06/09 03:27:47;;;;;;;41.75;23.10;;;;;;;;;;2073312;28;20191;-56
2022/06/09 03:28:47;;;;;;;26.65;21.85;;;;;;;;;;2073569;28;20665;-55
2022/06/09 03:29:47;;;;;;;29.48;22.20;;;;;;;;;;2072265;28;20239;-58
2022/06/09 03:30:48;;;;;;;33.00;24.17;;;;;;;;;;2073073;28;20306;-54
2022/06/09 03:31:48;;;;;;;30.90;22.75;;;;;;;;;;2073355;28;20709;-58
2022/06/09 03:32:49;;;;;;;28.05;21.23;;;;;;;;;;2073417;28;20165;-52
2022/06/09 03:33:49;;;;;;;29.25;22.05;;;;;;;;;;2073173;28;20189;-55
2022/06/09 03:34:49;;;;;;;30.70;22.60;;;;;;;;;;2072529;28;20188;-54
2022/06/09 03:35:50;;;;;;;25.98;20.40;;;;;;;;;;2072924;28;20187;-56
2022/06/09 03:36:50;;;;;;;32.28;21.42;;;;;;;;;;2072560;28;20192;-54
2022/06/09 03:37:51;;;;;;;27.92;20.80;;;;;;;;;;2072667;28;20179;-56
2022/06/09 03:38:51;;;;;;;27.55;21.42;;;;;;;;;;2073427;28;20205;-56
2022/06/09 03:39:51;;;;;;;29.30;21.52;;;;;;;;;;2073064;28;20177;-56
2022/06/09 03:40:52;;;;;;;26.15;21.75;;;;;;;;;;2072748;28;20267;-58
2022/06/09 03:41:52;;;;;;;30.88;22.08;;;;;;;;;;2072589;28;20173;-57
2022/06/09 03:42:52;;;;;;;32.25;21.10;;;;;;;;;;2073114;28;20232;-55
2022/06/09 03:43:53;;;;;;;26.95;21.23;;;;;;;;;;2072937;28;20180;-53
2022/06/09 03:44:53;;;;;;;25.45;20.23;;;;;;;;;;2071898;28;20169;-57
2022/06/09 03:45:54;;;;;;;27.13;20.15;;;;;;;;;;2072762;28;20177;-54
2022/06/09 03:46:54;;;;;;;30.45;20.98;;;;;;;;;;2072906;28;20248;-53
2022/06/09 03:47:55;;;;;;;23.75;19.67;;;;;;;;;;2073359;28;20590;-56
2022/06/09 03:48:56;;;;;;;25.63;21.15;;;;;;;;;;2072907;28;20708;-57
2022/06/09 03:49:56;;;;;;;27.13;19.85;;;;;;;;;;2075987;28;20567;-55
2022/06/09 03:50:56;;;;;;;29.00;20.60;;;;;;;;;;2072619;28;20699;-55
2022/06/09 03:51:57;;;;;;;25.48;20.10;;;;;;;;;;2073139;28;20165;-56
2022/06/09 03:52:57;;;;;;;29.17;20.58;;;;;;;;;;2072154;28;20196;-55
2022/06/09 03:53:57;;;;;;;28.83;20.42;;;;;;;;;;2071942;28;20169;-55
2022/06/09 03:54:58;;;;;;;24.60;19.70;;;;;;;;;;2072047;28;20707;-55
2022/06/09 03:55:58;;;;;;;26.75;20.05;;;;;;;;;;2072324;28;20264;-53
2022/06/09 03:56:58;;;;;;;25.60;19.38;;;;;;;;;;2072884;28;20295;-56
2022/06/09 03:57:59;;;;;;;24.75;19.00;;;;;;;;;;2072283;28;20173;-53
2022/06/09 03:58:59;;;;;;;25.70;19.27;;;;;;;;;;2072372;28;20169;-52
2022/06/09 03:59:59;;;;;;;26.42;19.85;;;;;;;;;;2072834;28;20677;-56
2022/06/09 04:01:00;;;;;;;23.85;19.67;;;;;;;;;;2072837;28;20685;-55
2022/06/09 04:02:00;;;;;;;28.27;20.27;;;;;;;;;;2073008;28;20254;-56
2022/06/09 04:03:00;;;;;;;25.90;20.00;;;;;;;;;;2072676;28;20184;-56
2022/06/09 04:04:00;;;;;;;26.88;19.38;;;;;;;;;;2072191;28;20188;-54
2022/06/09 04:05:01;;;;;;;28.23;20.30;;;;;;;;;;2072840;28;20200;-52
2022/06/09 04:06:02;;;;;;;23.00;19.20;;;;;;;;;;2073060;28;20268;-58
2022/06/09 04:07:03;;;;;;;25.08;19.40;;;;;;;;;;2073002;28;20187;-55
2022/06/09 04:08:03;;;;;;;25.08;18.92;;;;;;;;;;2073048;28;20181;-55
2022/06/09 04:09:04;;;;;;;25.20;18.77;;;;;;;;;;2073272;28;20200;-55
2022/06/09 04:10:05;;;;;;;24.98;19.30;;;;;;;;;;2073196;28;20637;-57
2022/06/09 04:11:05;;;;;;;28.42;19.80;;;;;;;;;;2072498;28;20284;-56
2022/06/09 04:12:06;;;;;;;23.38;18.92;;;;;;;;;;2073142;28;20172;-54
2022/06/09 04:13:06;;;;;;;24.30;19.77;;;;;;;;;;2074077;28;20187;-56
2022/06/09 04:14:06;;;;;;;23.80;18.33;;;;;;;;;;2072899;28;20256;-52
2022/06/09 04:15:07;;;;;;;21.33;18.15;;;;;;;;;;2073762;28;20189;-56
2022/06/09 04:16:16;;;;;;;27.23;19.38;;;;;;;;;;2074528;28;20674;-54
2022/06/09 04:17:17;;;;;;;26.85;19.20;;;;;;;;;;2074297;28;20177;-56
2022/06/09 04:18:17;;;;;;;20.83;18.63;;;;;;;;;;2074434;28;20176;-56
2022/06/09 04:19:17;;;;;;;25.05;19.23;;;;;;;;;;2074570;28;20204;-56
2022/06/09 04:20:19;;;;;;;28.15;18.83;;;;;;;;;;2074645;28;20204;-55
2022/06/09 04:21:19;;;;;;;23.23;19.02;;;;;;;;;;2074433;28;20578;-57
2022/06/09 04:22:19;;;;;;;26.20;18.60;;;;;;;;;;2074807;28;20169;-54
2022/06/09 04:23:20;;;;;;;25.30;19.77;;;;;;;;;;2074174;28;20181;-51
2022/06/09 04:24:20;;;;;;;26.08;18.95;;;;;;;;;;2073314;28;20181;-53
2022/06/09 04:25:20;;;;;;;28.42;18.85;;;;;;;;;;2074459;28;20180;-52
2022/06/09 04:26:22;;;;;;;20.85;17.73;;;;;;;;;;2074611;28;20506;-57
2022/06/09 04:27:23;;;;;;;25.30;17.65;;;;;;;;;;2074099;28;20180;-53
2022/06/09 04:28:23;;;;;;;26.52;20.05;;;;;;;;;;2074238;28;20259;-58
2022/06/09 04:29:24;;;;;;;22.10;19.50;;;;;;;;;;2074680;28;20653;-54
2022/06/09 04:30:24;;;;;;;27.63;19.50;;;;;;;;;;2074788;28;20180;-52
2022/06/09 04:31:24;;;;;;;24.70;18.63;;;;;;;;;;2074293;28;20204;-54
2022/06/09 04:32:25;;;;;;;26.30;19.13;;;;;;;;;;2074301;28;20649;-54
2022/06/09 04:33:25;;;;;;;24.90;18.85;;;;;;;;;;2074667;28;20193;-52
2022/06/09 04:34:25;;;;;;;26.13;19.30;;;;;;;;;;2072948;28;20222;-60
2022/06/09 04:35:26;;;;;;;21.02;17.80;;;;;;;;;;2074239;28;20621;-56
2022/06/09 04:36:26;;;;;;;24.13;18.73;;;;;;;;;;2074049;28;20665;-54
2022/06/09 04:37:59;;;;;;;23.85;19.45;;;;;;;;;;2073779;28;20601;-54
2022/06/09 04:38:47;;;;;;;23.17;19.00;;;;;;;;;;2067452;28;20174;-52
2022/06/09 04:39:47;;;;;;;23.50;18.90;;;;;;;;;;2071608;28;20217;-54
2022/06/09 04:40:47;;;;;;;31.35;19.92;;;;;;;;;;2068259;28;20208;-53
2022/06/09 04:41:48;;;;;;;29.08;19.73;;;;;;;;;;2076079;28;20180;-58
2022/06/09 04:42:48;;;;;;;25.10;20.25;;;;;;;;;;2076404;28;20256;-56
2022/06/09 04:43:49;;;;;;;26.10;18.77;;;;;;;;;;2076236;28;20697;-57
2022/06/09 04:44:49;;;;;;;24.67;18.88;;;;;;;;;;2074855;28;20177;-53
2022/06/09 04:45:50;;;;;;;29.10;19.33;;;;;;;;;;2076761;28;20208;-52
2022/06/09 04:46:50;;;;;;;25.35;19.17;;;;;;;;;;2076191;28;20165;-56
2022/06/09 04:47:50;;;;;;;25.25;18.73;;;;;;;;;;2075144;28;20576;-59
2022/06/09 04:48:51;;;;;;;26.33;19.30;;;;;;;;;;2074684;28;20303;-57
2022/06/09 04:49:51;;;;;;;20.98;18.42;;;;;;;;;;2077984;28;20588;-59
2022/06/09 04:50:51;;;;;;;24.95;18.25;;;;;;;;;;2077465;28;20196;-58
2022/06/09 04:51:52;;;;;;;26.15;19.13;;;;;;;;;;2074112;28;20644;-58
2022/06/09 04:52:52;;;;;;;25.15;18.85;;;;;;;;;;2074459;28;20185;-53
2022/06/09 04:53:53;;;;;;;25.00;18.23;;;;;;;;;;2074274;28;20175;-57
2022/06/09 04:54:53;;;;;;;22.30;19.50;;;;;;;;;;2074048;28;20227;-54
2022/06/09 04:55:54;;;;;;;25.52;18.73;;;;;;;;;;2072869;28;20230;-56
2022/06/09 04:56:54;;;;;;;23.48;18.63;;;;;;;;;;2073934;28;20188;-54
2022/06/09 04:57:55;;;;;;;25.63;19.40;;;;;;;;;;2074012;28;20203;-54
2022/06/09 04:58:55;;;;;;;24.08;18.90;;;;;;;;;;2074517;28;20165;-56
2022/06/09 04:59:55;;;;;;;24.25;19.02;;;;;;;;;;2075063;28;20618;-54
2022/06/09 05:00:56;;;;;;;21.45;17.42;;;;;;;;;;2075212;28;20673;-57
2022/06/09 05:01:56;;;;;;;22.35;18.42;;;;;;;;;;2074962;28;20230;-54
2022/06/09 05:02:57;;;;;;;24.92;18.52;;;;;;;;;;2075546;28;20227;-53
2022/06/09 05:03:58;;;;;;;23.13;18.27;;;;;;;;;;2074896;28;20635;-58
2022/06/09 05:04:58;;;;;;;21.73;18.65;;;;;;;;;;2074465;28;20177;-55
2022/06/09 05:05:59;;;;;;;23.83;19.02;;;;;;;;;;2074595;28;20255;-53
2022/06/09 05:06:59;;;;;;;24.40;19.38;;;;;;;;;;2075351;28;20173;-57
2022/06/09 05:08:00;;;;;;;24.35;18.10;;;;;;;;;;2075150;28;20236;-56
2022/06/09 05:09:00;;;;;;;19.85;17.55;;;;;;;;;;2074495;28;20177;-56
2022/06/09 05:10:00;;;;;;;25.23;18.75;;;;;;;;;;2073845;28;20181;-56
2022/06/09 05:11:01;;;;;;;22.80;18.30;;;;;;;;;;2074926;28;20731;-55
2022/06/09 05:12:01;;;;;;;27.38;18.58;;;;;;;;;;2074684;28;20255;-52
2022/06/09 05:13:05;;;;;;;25.40;18.45;;;;;;;;;;2074624;28;20165;-57
2022/06/09 05:14:06;;;;;;;23.10;17.77;;;;;;;;;;2073605;28;20189;-53
2022/06/09 05:15:06;;;;;;;22.27;18.90;;;;;;;;;;2074380;28;20201;-54
2022/06/09 05:16:08;;;;;;;21.95;18.27;;;;;;;;;;2074697;28;20172;-50
2022/06/09 05:17:08;;;;;;;22.08;17.30;;;;;;;;;;2075099;28;20177;-56
2022/06/09 05:18:11;;;;;;;24.45;16.75;;;;;;;;;;2074252;28;20681;-53
2022/06/09 05:19:11;;;;;;;22.60;16.83;;;;;;;;;;2074701;28;20271;-52
2022/06/09 05:20:13;;;;;;;20.30;18.00;;;;;;;;;;2073976;28;20227;-51
2022/06/09 05:21:13;;;;;;;20.40;17.30;;;;;;;;;;2074260;28;20251;-51
2022/06/09 05:22:13;;;;;;;24.70;17.95;;;;;;;;;;2074461;28;20723;-54
2022/06/09 05:23:14;;;;;;;19.20;17.08;;;;;;;;;;2074376;28;20195;-52
2022/06/09 05:24:14;;;;;;;25.35;18.88;;;;;;;;;;2068182;28;20173;-51
2022/06/09 05:25:14;;;;;;;23.85;19.40;;;;;;;;;;2067085;28;20220;-56
2022/06/09 05:26:16;;;;;;;24.90;18.35;;;;;;;;;;2066840;28;20181;-52
2022/06/09 05:27:16;;;;;;;21.60;17.67;;;;;;;;;;2066457;28;20185;-54
2022/06/09 05:28:18;;;;;;;21.08;18.38;;;;;;;;;;2066511;28;20200;-52
2022/06/09 05:29:18;;;;;;;23.63;17.45;;;;;;;;;;2069389;28;20212;-50
2022/06/09 05:30:20;;;;;;;22.17;17.10;;;;;;;;;;2074317;28;20165;-53
2022/06/09 05:31:20;;;;;;;20.63;16.95;;;;;;;;;;2074486;28;20208;-52
2022/06/09 05:32:21;;;;;;;20.73;16.98;;;;;;;;;;2074878;28;20717;-53
2022/06/09 05:33:22;;;;;;;20.77;16.98;;;;;;;;;;2074887;28;20185;-56
2022/06/09 05:34:23;;;;;;;19.08;16.02;;;;;;;;;;2073805;28;20177;-53
2022/06/09 05:35:23;;;;;;;20.42;16.92;;;;;;;;;;2074899;28;20256;-54
2022/06/09 05:36:23;;;;;;;21.58;17.23;;;;;;;;;;2070054;28;20178;-51
2022/06/09 05:37:24;;;;;;;22.73;16.27;;;;;;;;;;2066036;28;20268;-55
2022/06/09 05:45:00;;;;;;;26.92;18.10;;;;;;;;;;2074842;28;20172;-53
2022/06/09 05:46:01;;;;;;;22.48;17.10;;;;;;;;;;2075278;28;20173;-53
2022/06/09 05:47:02;;;;;;;25.17;16.20;;;;;;;;;;2074591;28;20209;-53
2022/06/09 05:48:02;;;;;;;21.55;16.42;;;;;;;;;;2066303;28;20253;-58
2022/06/09 05:49:03;;;;;;;20.08;16.30;;;;;;;;;;2074941;28;20195;-52
2022/06/09 05:50:05;;;;;;;18.92;16.63;;;;;;;;;;2080324;28;20164;-51
2022/06/09 05:51:05;;;;;;;26.40;17.27;;;;;;;;;;2078130;28;20199;-57
2022/06/09 05:52:05;;;;;;;20.95;16.70;;;;;;;;;;2076463;28;20657;-52
2022/06/09 05:53:06;;;;;;;19.60;15.73;;;;;;;;;;2075887;28;20227;-54
2022/06/09 05:54:06;;;;;;;18.90;16.67;;;;;;;;;;2075430;28;20553;-58
2022/06/09 05:55:07;;;;;;;27.00;18.05;;;;;;;;;;2075318;28;20629;-60
2022/06/09 05:56:08;;;;;;;21.80;17.50;;;;;;;;;;2075671;28;20553;-56
2022/06/09 05:57:08;;;;;;;23.50;17.77;;;;;;;;;;2075745;28;20177;-57
2022/06/09 05:58:10;;;;;;;17.77;15.73;;;;;;;;;;2074976;28;20642;-57
2022/06/09 05:59:10;;;;;;;19.90;16.38;;;;;;;;;;2074571;28;20774;-59
2022/06/09 06:00:11;;;;;;;19.60;16.70;;;;;;;;;;2074359;28;20172;-54
2022/06/09 06:01:15;;;;;;;20.10;16.75;;;;;;;;;;2074512;28;20205;-55
2022/06/09 06:02:16;;;;;;;20.00;16.42;;;;;;;;;;2074621;28;20169;-51
2022/06/09 06:03:16;;;;;;;20.45;15.85;;;;;;;;;;2073917;28;20227;-59
2022/06/09 06:04:17;;;;;;;22.58;15.73;;;;;;;;;;2070737;28;20228;-60
2022/06/09 06:06:36;;;;;;;19.27;17.13;;;;;;;;;;2072741;28;20661;-58
2022/06/09 06:07:36;;;;;;;21.58;16.77;;;;;;;;;;2072407;28;20204;-51
2022/06/09 06:08:39;;;;;;;18.77;15.93;;;;;;;;;;2072901;28;20177;-52